createdAt,value
2023-02-23T00:05:37.320Z,53.35
2023-02-23T00:08:05.381Z,54.72
2023-02-23T00:10:33.742Z,53.70
2023-02-23T00:13:01.263Z,53.85
2023-02-23T00:15:29.964Z,54.03
2023-02-23T00:17:57.860Z,53.95
2023-02-23T00:20:28.149Z,55.28
2023-02-23T00:22:57.260Z,55.22
2023-02-23T00:25:26.154Z,56.17
2023-02-23T00:27:53.578Z,54.45
2023-02-23T00:30:23.279Z,53.92
2023-02-23T00:32:55.025Z,53.30
2023-02-23T00:35:25.276Z,54.38
2023-02-23T00:37:52.617Z,53.97
2023-02-23T00:40:22.572Z,52.65
2023-02-23T00:42:51.704Z,54.10
2023-02-23T00:45:20.759Z,54.58
2023-02-23T00:47:48.932Z,54.30
2023-02-23T00:50:18.523Z,53.33
2023-02-23T00:52:47.759Z,54.05
2023-02-23T00:55:17.505Z,54.70
2023-02-23T00:57:45.107Z,53.33
2023-02-23T01:03:41.698Z,53.60
2023-02-23T01:06:16.976Z,51.22
2023-02-23T01:08:49.811Z,54.83
2023-02-23T01:11:22.693Z,53.17
2023-02-23T01:13:53.093Z,52.00
2023-02-23T01:16:23.192Z,52.97
2023-02-23T01:18:51.356Z,54.03
2023-02-23T01:21:25.497Z,53.65
2023-02-23T01:23:54.152Z,51.58
2023-02-23T01:26:27.172Z,51.05
2023-02-23T01:28:57.378Z,52.33
2023-02-23T01:31:26.753Z,52.05
2023-02-23T01:33:55.876Z,52.03
2023-02-23T01:36:25.707Z,52.20
2023-02-23T01:38:57.329Z,52.63
2023-02-23T01:41:26.951Z,50.33
2023-02-23T01:44:02.049Z,51.03
2023-02-23T01:46:34.875Z,51.20
2023-02-23T01:49:04.021Z,51.72
2023-02-23T01:51:37.303Z,50.58
2023-02-23T01:54:10.731Z,50.03
2023-02-23T01:56:46.868Z,50.10
2023-02-23T01:59:16.478Z,51.38
2023-02-23T02:01:47.556Z,49.40
2023-02-23T02:04:19.980Z,48.80
2023-02-23T02:06:53.717Z,50.42
2023-02-23T02:09:29.921Z,50.55
2023-02-23T02:12:02.704Z,52.33
2023-02-23T02:14:31.922Z,49.03
2023-02-23T02:17:21.038Z,50.45
2023-02-23T02:20:12.792Z,52.25
2023-02-23T02:23:08.573Z,48.75
2023-02-23T02:25:54.646Z,50.03
2023-02-23T02:28:40.996Z,50.45
2023-02-23T02:31:39.772Z,50.60
2023-02-23T02:34:57.621Z,51.10
2023-02-23T02:38:01.908Z,51.47
2023-02-23T02:40:53.626Z,52.00
2023-02-23T02:43:43.066Z,52.67
2023-02-23T02:46:20.439Z,50.10
2023-02-23T02:49:17.898Z,51.45
2023-02-23T02:51:55.956Z,50.97
2023-02-23T02:54:39.606Z,49.85
2023-02-23T02:57:09.617Z,50.78
2023-02-23T03:00:04.983Z,49.95
2023-02-23T03:02:53.293Z,51.80
2023-02-23T03:05:45.181Z,49.65
2023-02-23T03:08:56.294Z,50.58
2023-02-23T03:11:58.400Z,51.30
2023-02-23T03:15:10.562Z,50.80
2023-02-23T03:17:56.837Z,52.03
2023-02-23T03:20:53.627Z,51.50
2023-02-23T03:24:07.840Z,50.72
2023-02-23T03:27:33.052Z,49.22
2023-02-23T03:30:39.383Z,50.53
2023-02-23T03:33:42.534Z,50.17
2023-02-23T03:36:39.557Z,52.38
2023-02-23T03:39:35.464Z,51.97
2023-02-23T03:42:26.801Z,50.45
2023-02-23T03:45:15.180Z,52.38
2023-02-23T03:48:04.011Z,51.08
2023-02-23T03:50:58.506Z,51.83
2023-02-23T03:54:00.500Z,51.70
2023-02-23T03:56:51.821Z,52.05
2023-02-23T03:59:42.377Z,52.72
2023-02-23T04:05:18.381Z,51.60
2023-02-23T04:08:07.794Z,50.55
2023-02-23T04:10:57.556Z,50.67
2023-02-23T04:13:28.282Z,53.33
2023-02-23T04:16:08.118Z,54.10
2023-02-23T04:18:39.084Z,51.90
2023-02-23T04:21:07.382Z,50.70
2023-02-23T04:23:35.934Z,52.92
2023-02-23T04:26:03.278Z,52.33
2023-02-23T04:28:30.421Z,51.22
2023-02-23T04:31:01.925Z,54.58
2023-02-23T04:33:29.247Z,52.17
2023-02-23T04:35:56.604Z,51.80
2023-02-23T04:38:25.050Z,52.92
2023-02-23T04:40:52.712Z,52.20
2023-02-23T04:43:20.172Z,52.60
2023-02-23T04:45:47.661Z,53.60
2023-02-23T04:48:15.290Z,52.38
2023-02-23T04:50:42.563Z,51.80
2023-02-23T04:53:10.930Z,53.50
2023-02-23T04:55:38.932Z,49.40
2023-02-23T04:58:06.128Z,51.65
2023-02-23T05:00:34.260Z,51.78
2023-02-23T05:03:05.554Z,50.92
2023-02-23T05:05:33.128Z,50.65
2023-02-23T05:08:01.421Z,52.67
2023-02-23T05:10:29.160Z,50.30
2023-02-23T05:12:57.501Z,51.65
2023-02-23T05:15:25.223Z,51.60
2023-02-23T05:17:52.890Z,50.08
2023-02-23T05:20:20.299Z,51.47
2023-02-23T05:22:48.219Z,48.90
2023-02-23T05:25:18.391Z,51.28
2023-02-23T05:27:46.726Z,50.05
2023-02-23T05:30:17.361Z,50.60
2023-02-23T05:32:45.728Z,51.10
2023-02-23T05:35:12.990Z,50.88
2023-02-23T05:37:41.199Z,50.38
2023-02-23T05:40:09.888Z,50.53
2023-02-23T05:42:38.590Z,48.88
2023-02-23T05:45:07.960Z,48.80
2023-02-23T05:47:38.731Z,49.40
2023-02-23T05:50:10.385Z,48.80
2023-02-23T05:52:42.614Z,48.67
2023-02-23T05:55:16.322Z,47.85
2023-02-23T05:57:46.263Z,49.22
2023-02-23T06:00:16.706Z,49.63
2023-02-23T06:05:15.762Z,47.30
2023-02-23T06:07:43.289Z,48.67
2023-02-23T06:10:13.884Z,48.13
2023-02-23T06:12:45.319Z,47.85
2023-02-23T06:15:12.819Z,47.47
2023-02-23T06:17:40.281Z,45.95
2023-02-23T06:20:08.046Z,47.10
2023-02-23T06:22:35.906Z,48.08
2023-02-23T06:25:06.424Z,47.55
2023-02-23T06:30:01.196Z,45.35
2023-02-23T06:32:29.251Z,45.20
2023-02-23T06:34:56.689Z,46.30
2023-02-23T06:37:25.578Z,45.13
2023-02-23T06:39:52.957Z,45.58
2023-02-23T06:42:20.417Z,45.25
2023-02-23T06:44:48.802Z,44.75
2023-02-23T06:47:17.528Z,45.90
2023-02-23T06:49:45.572Z,46.53
2023-02-23T06:52:15.273Z,45.30
2023-02-23T06:54:42.804Z,45.03
2023-02-23T06:57:10.830Z,47.97
2023-02-23T06:59:39.286Z,47.33
2023-02-23T07:02:06.882Z,43.92
2023-02-23T07:04:34.418Z,48.00
2023-02-23T07:07:01.652Z,46.28
2023-02-23T07:09:30.710Z,46.45
2023-02-23T07:11:57.987Z,47.40
2023-02-23T07:14:27.185Z,45.97
2023-02-23T07:16:55.154Z,47.72
2023-02-23T07:19:23.785Z,45.40
2023-02-23T07:21:51.552Z,45.42
2023-02-23T07:24:19.276Z,45.45
2023-02-23T07:26:49.088Z,46.03
2023-02-23T07:29:17.589Z,44.45
2023-02-23T07:31:47.948Z,45.20
2023-02-23T07:34:16.894Z,42.78
2023-02-23T07:36:44.902Z,46.75
2023-02-23T07:39:13.038Z,47.63
2023-02-23T07:41:40.664Z,44.80
2023-02-23T07:44:18.701Z,45.20
2023-02-23T07:46:47.383Z,43.45
2023-02-23T07:49:15.252Z,43.97
2023-02-23T07:51:42.940Z,43.03
2023-02-23T07:54:10.271Z,42.72
2023-02-23T07:56:37.761Z,44.72
2023-02-23T07:59:05.070Z,42.78
2023-02-23T08:01:32.201Z,43.92
2023-02-23T08:03:59.648Z,43.60
2023-02-23T08:06:27.370Z,43.58
2023-02-23T08:08:55.051Z,44.35
2023-02-23T08:11:22.839Z,42.45
2023-02-23T08:13:50.229Z,42.17
2023-02-23T08:16:20.546Z,42.72
2023-02-23T08:18:47.796Z,41.22
2023-02-23T08:21:15.314Z,43.63
2023-02-23T08:23:42.705Z,42.67
2023-02-23T08:26:10.062Z,42.70
2023-02-23T08:28:38.949Z,42.92
2023-02-23T08:31:10.174Z,43.80
2023-02-23T08:33:39.431Z,44.72
2023-02-23T08:36:08.240Z,43.83
2023-02-23T08:38:45.920Z,46.03
2023-02-23T08:41:13.385Z,45.15
2023-02-23T08:43:40.658Z,44.08
2023-02-23T08:46:08.735Z,41.92
2023-02-23T08:48:36.725Z,45.42
2023-02-23T08:51:07.250Z,42.60
2023-02-23T08:56:05.513Z,41.50
2023-02-23T08:58:33.719Z,43.72
2023-02-23T09:01:01.517Z,45.08
2023-02-23T09:03:34.562Z,43.95
2023-02-23T09:06:11.272Z,43.83
2023-02-23T09:08:39.370Z,44.75
2023-02-23T09:11:06.811Z,44.10
2023-02-23T09:13:34.292Z,43.08
2023-02-23T09:16:04.573Z,42.03
2023-02-23T09:18:32.727Z,43.63
2023-02-23T09:21:00.000Z,43.28
2023-02-23T09:23:34.262Z,44.40
2023-02-23T09:26:10.107Z,43.55
2023-02-23T09:28:41.486Z,42.80
2023-02-23T09:31:16.984Z,43.58
2023-02-23T09:33:45.976Z,44.92
2023-02-23T09:36:21.386Z,44.97
2023-02-23T09:38:53.294Z,45.45
2023-02-23T09:41:26.801Z,43.05
2023-02-23T09:44:21.633Z,41.38
2023-02-23T09:47:31.347Z,41.28
2023-02-23T09:50:07.172Z,42.20
2023-02-23T09:52:42.028Z,42.90
2023-02-23T09:55:13.728Z,44.97
2023-02-23T09:57:46.590Z,44.03
2023-02-23T10:00:27.942Z,42.63
2023-02-23T10:03:50.201Z,45.35
2023-02-23T10:06:21.263Z,42.95
2023-02-23T10:09:15.237Z,43.22
2023-02-23T10:11:57.098Z,44.13
2023-02-23T10:14:45.456Z,44.05
2023-02-23T10:17:35.280Z,43.05
2023-02-23T10:20:12.005Z,46.28
2023-02-23T10:22:41.688Z,44.40
2023-02-23T10:25:18.220Z,43.27
2023-02-23T10:27:48.832Z,43.45
2023-02-23T10:32:52.954Z,42.38
2023-02-23T10:37:50.646Z,41.80
2023-02-23T10:40:23.086Z,47.00
2023-02-23T10:42:52.532Z,44.10
2023-02-23T10:45:24.931Z,43.42
2023-02-23T10:48:09.690Z,42.13
2023-02-23T10:50:39.576Z,45.13
2023-02-23T10:53:29.578Z,43.67
2023-02-23T10:56:08.046Z,43.15
2023-02-23T10:58:55.496Z,40.72
2023-02-23T11:05:54.357Z,40.15
2023-02-23T11:08:33.170Z,39.58
2023-02-23T11:11:01.152Z,39.90
2023-02-23T11:13:38.559Z,38.85
2023-02-23T11:16:17.756Z,39.30
2023-02-23T11:19:06.184Z,41.22
2023-02-23T11:21:36.031Z,40.55
2023-02-23T11:24:31.022Z,40.47
2023-02-23T11:27:04.014Z,39.10
2023-02-23T11:29:35.445Z,38.95
2023-02-23T11:32:19.514Z,38.75
2023-02-23T11:34:49.966Z,38.80
2023-02-23T11:37:23.000Z,37.33
2023-02-23T11:39:58.884Z,37.03
2023-02-23T11:42:33.247Z,36.92
2023-02-23T11:45:19.469Z,38.25
2023-02-23T11:47:51.688Z,34.88
2023-02-23T11:50:32.715Z,32.90
2023-02-23T11:53:15.565Z,35.10
2023-02-23T11:55:56.871Z,33.20
2023-02-23T11:58:30.960Z,33.25
2023-02-23T12:01:05.176Z,33.72
2023-02-23T12:03:34.272Z,34.17
2023-02-23T12:06:03.082Z,32.13
2023-02-23T12:08:40.216Z,30.95
2023-02-23T12:11:14.681Z,30.13
2023-02-23T12:13:47.646Z,29.17
2023-02-23T12:16:21.759Z,26.88
2023-02-23T12:18:57.150Z,27.98
2023-02-23T12:21:41.556Z,25.35
2023-02-23T12:24:08.804Z,26.05
2023-02-23T12:27:02.668Z,24.60
2023-02-23T12:29:55.965Z,23.98
2023-02-23T12:32:32.882Z,23.90
2023-02-23T12:35:07.673Z,24.00
2023-02-23T12:38:27.721Z,22.10
2023-02-23T12:41:19.118Z,22.27
2023-02-23T12:44:01.489Z,22.88
2023-02-23T12:46:35.605Z,22.23
2023-02-23T12:49:02.803Z,23.35
2023-02-23T12:51:39.197Z,23.50
2023-02-23T12:54:09.296Z,21.75
2023-02-23T12:57:04.459Z,24.00
2023-02-23T13:00:21.586Z,23.20
2023-02-23T13:03:03.812Z,22.85
2023-02-23T13:05:40.130Z,22.95
2023-02-23T13:08:30.479Z,23.98
2023-02-23T13:11:06.628Z,22.50
2023-02-23T13:13:43.715Z,20.85
2023-02-23T13:16:22.384Z,21.48
2023-02-23T13:19:06.602Z,20.60
2023-02-23T13:22:09.140Z,20.33
2023-02-23T13:24:40.378Z,19.98
2023-02-23T13:27:18.940Z,19.42
2023-02-23T13:29:55.297Z,20.35
2023-02-23T13:32:32.982Z,20.60
2023-02-23T13:35:02.420Z,18.90
2023-02-23T13:37:58.043Z,19.70
2023-02-23T13:40:49.016Z,20.17
2023-02-23T13:43:34.876Z,18.83
2023-02-23T13:46:28.798Z,17.33
2023-02-23T13:49:09.077Z,16.98
2023-02-23T13:51:39.236Z,15.20
2023-02-23T13:54:32.263Z,12.90
2023-02-23T13:57:08.554Z,10.52
2023-02-23T13:59:43.043Z,11.93
2023-02-23T14:02:33.877Z,11.80
2023-02-23T14:05:15.110Z,13.00
2023-02-23T14:07:45.343Z,12.60
2023-02-23T14:10:25.696Z,14.02
2023-02-23T14:15:39.879Z,12.82
2023-02-23T14:18:26.251Z,12.13
2023-02-23T14:21:13.212Z,12.52
2023-02-23T14:24:12.408Z,11.55
2023-02-23T14:26:42.712Z,10.65
2023-02-23T14:29:17.441Z,9.90
2023-02-23T14:32:14.648Z,9.88
2023-02-23T14:34:57.367Z,11.07
2023-02-23T14:37:32.317Z,10.82
2023-02-23T14:40:17.407Z,11.20
2023-02-23T14:42:58.116Z,11.65
2023-02-23T14:48:19.845Z,10.95
2023-02-23T14:50:53.605Z,12.43
2023-02-23T14:53:24.380Z,11.65
2023-02-23T14:55:52.793Z,11.13
2023-02-23T14:58:26.554Z,11.43
2023-02-23T15:00:53.885Z,11.00
2023-02-23T15:03:22.912Z,10.73
2023-02-23T15:06:01.357Z,11.15
2023-02-23T15:08:31.537Z,10.27
2023-02-23T15:11:22.624Z,10.50
2023-02-23T15:13:52.631Z,10.82
2023-02-23T15:16:35.460Z,9.38
2023-02-23T15:19:05.297Z,9.85
2023-02-23T15:21:34.128Z,9.80
2023-02-23T15:24:12.093Z,8.98
2023-02-23T15:26:41.190Z,10.38
2023-02-23T15:29:13.808Z,9.75
2023-02-23T15:31:51.018Z,10.38
2023-02-23T15:34:30.955Z,10.50
2023-02-23T15:37:01.740Z,9.33
2023-02-23T15:39:57.461Z,9.18
2023-02-23T15:42:31.964Z,9.90
2023-02-23T15:45:02.433Z,10.30
2023-02-23T15:47:34.977Z,9.68
2023-02-23T15:50:20.090Z,9.05
2023-02-23T15:53:01.320Z,10.00
2023-02-23T15:55:35.643Z,10.02
2023-02-23T15:58:21.982Z,9.20
2023-02-23T16:01:07.411Z,9.77
2023-02-23T16:03:37.461Z,9.85
2023-02-23T16:06:06.755Z,9.73
2023-02-23T16:08:36.905Z,9.57
2023-02-23T16:11:12.102Z,9.57
2023-02-23T16:13:45.413Z,9.60
2023-02-23T16:16:19.810Z,9.07
2023-02-23T16:18:54.181Z,9.32
2023-02-23T16:21:31.106Z,8.90
2023-02-23T16:24:02.226Z,10.98
2023-02-23T16:26:37.475Z,9.52
2023-02-23T16:29:05.630Z,9.00
2023-02-23T16:31:51.867Z,10.10
2023-02-23T16:34:21.329Z,10.00
2023-02-23T16:36:57.905Z,10.23
2023-02-23T16:39:30.009Z,12.10
2023-02-23T16:42:01.477Z,11.73
2023-02-23T16:44:37.810Z,12.45
2023-02-23T16:47:09.888Z,12.23
2023-02-23T16:49:37.122Z,12.50
2023-02-23T16:52:16.653Z,13.43
2023-02-23T16:54:44.554Z,12.87
2023-02-23T16:57:22.656Z,12.75
2023-02-23T16:59:52.725Z,12.02
2023-02-23T17:02:23.025Z,12.25
2023-02-23T17:04:59.109Z,14.05
2023-02-23T17:07:26.416Z,12.02
2023-02-23T17:09:55.516Z,13.20
2023-02-23T17:12:23.588Z,12.05
2023-02-23T17:14:52.887Z,17.23
2023-02-23T17:17:23.100Z,15.77
2023-02-23T17:19:51.095Z,14.73
2023-02-23T17:22:18.499Z,16.65
2023-02-23T17:24:45.805Z,16.77
2023-02-23T17:27:12.959Z,16.92
2023-02-23T17:29:40.163Z,16.63
2023-02-23T17:32:07.589Z,16.42
2023-02-23T17:34:36.051Z,17.85
2023-02-23T17:37:04.882Z,18.33
2023-02-23T17:39:33.595Z,15.50
2023-02-23T17:42:01.009Z,13.55
2023-02-23T17:44:28.097Z,11.35
2023-02-23T17:46:55.925Z,11.48
2023-02-23T17:49:23.446Z,9.75
2023-02-23T17:51:59.100Z,7.95
2023-02-23T17:54:29.070Z,8.25
2023-02-23T17:56:56.686Z,7.85
2023-02-23T17:59:23.750Z,6.53
2023-02-23T18:01:54.160Z,6.88
2023-02-23T18:06:49.348Z,6.03
2023-02-23T18:09:16.628Z,6.80
2023-02-23T18:11:43.857Z,6.75
2023-02-23T18:14:14.514Z,6.22
2023-02-23T18:19:09.142Z,6.25
2023-02-23T18:21:40.697Z,5.80
2023-02-23T18:24:08.276Z,5.90
2023-02-23T18:26:35.971Z,5.55
2023-02-23T18:29:05.212Z,5.95
2023-02-23T18:31:34.507Z,5.60
2023-02-23T18:34:02.154Z,6.40
2023-02-23T18:36:31.733Z,5.53
2023-02-23T18:39:00.789Z,6.33
2023-02-23T18:41:30.896Z,6.18
2023-02-23T18:44:03.257Z,5.85
2023-02-23T18:46:38.314Z,5.63
2023-02-23T18:49:06.727Z,5.35
2023-02-23T18:51:34.958Z,5.40
2023-02-23T18:54:03.698Z,5.32
2023-02-23T18:56:31.988Z,4.88
2023-02-23T18:59:01.715Z,5.03
2023-02-23T19:01:32.058Z,4.83
2023-02-23T19:04:01.949Z,3.85
2023-02-23T19:06:30.599Z,4.47
2023-02-23T19:09:00.116Z,4.18
2023-02-23T19:11:33.739Z,3.88
2023-02-23T19:14:03.964Z,5.10
2023-02-23T19:16:32.598Z,3.65
2023-02-23T19:19:00.781Z,5.18
2023-02-23T19:21:29.214Z,4.57
2023-02-23T19:24:01.441Z,3.88
2023-02-23T19:26:29.602Z,3.65
2023-02-23T19:28:58.098Z,3.92
2023-02-23T19:31:26.553Z,3.20
2023-02-23T19:33:56.138Z,3.95
2023-02-23T19:36:30.080Z,3.83
2023-02-23T19:39:06.009Z,3.55
2023-02-23T19:41:35.019Z,4.10
2023-02-23T19:44:03.595Z,3.30
2023-02-23T19:46:31.286Z,4.88
2023-02-23T19:48:58.623Z,3.28
2023-02-23T19:51:25.834Z,4.88
2023-02-23T19:53:54.823Z,3.95
2023-02-23T19:56:25.592Z,4.25
2023-02-23T19:58:53.542Z,4.18
2023-02-23T20:01:27.777Z,4.05
2023-02-23T20:03:56.150Z,2.90
2023-02-23T20:06:32.170Z,4.60
2023-02-23T20:09:00.439Z,3.72
2023-02-23T20:11:30.724Z,3.92
2023-02-23T20:14:00.720Z,3.50
2023-02-23T20:16:29.417Z,4.53
2023-02-23T20:19:00.275Z,3.80
2023-02-23T20:21:30.208Z,3.83
2023-02-23T20:23:58.329Z,3.97
2023-02-23T20:26:32.334Z,3.65
2023-02-23T20:29:00.394Z,4.10
2023-02-23T20:31:44.443Z,4.22
2023-02-23T20:34:12.164Z,5.35
2023-02-23T20:36:40.971Z,4.10
2023-02-23T20:39:10.694Z,3.97
2023-02-23T20:41:44.290Z,4.07
2023-02-23T20:44:13.362Z,3.45
2023-02-23T20:46:43.212Z,4.22
2023-02-23T20:49:13.095Z,4.10
2023-02-23T20:51:47.087Z,4.72
2023-02-23T20:54:14.887Z,3.50
2023-02-23T20:56:58.987Z,4.25
2023-02-23T20:59:30.047Z,3.47
2023-02-23T21:01:57.732Z,3.92
2023-02-23T21:04:25.919Z,3.30
2023-02-23T21:06:53.492Z,4.40
2023-02-23T21:09:27.797Z,4.28
2023-02-23T21:11:55.339Z,5.35
2023-02-23T21:14:23.542Z,5.05
2023-02-23T21:16:51.347Z,3.95
2023-02-23T21:19:21.512Z,4.88
2023-02-23T21:21:58.313Z,6.00
2023-02-23T21:24:26.810Z,7.28
2023-02-23T21:26:54.957Z,6.80
2023-02-23T21:29:24.010Z,6.00
2023-02-23T21:31:53.261Z,5.43
2023-02-23T21:34:22.939Z,6.00
2023-02-23T21:36:52.460Z,5.77
2023-02-23T21:39:23.297Z,5.33
2023-02-23T21:41:53.409Z,3.83
2023-02-23T21:44:21.409Z,4.82
2023-02-23T21:46:51.893Z,3.80
2023-02-23T21:49:19.960Z,3.97
2023-02-23T21:51:51.365Z,4.03
2023-02-23T21:54:21.691Z,4.88
2023-02-23T21:56:48.824Z,4.68
2023-02-23T21:59:16.054Z,4.18
2023-02-23T22:01:43.603Z,3.38
2023-02-23T22:04:14.859Z,3.88
2023-02-23T22:06:44.664Z,3.75
2023-02-23T22:09:12.831Z,3.88
2023-02-23T22:11:44.628Z,4.05
2023-02-23T22:14:12.552Z,3.35
2023-02-23T22:16:43.856Z,3.25
2023-02-23T22:19:12.559Z,3.85
2023-02-23T22:21:42.130Z,3.55
2023-02-23T22:24:12.415Z,4.23
2023-02-23T22:26:54.603Z,4.00
2023-02-23T22:29:26.645Z,3.75
2023-02-23T22:31:54.739Z,2.90
2023-02-23T22:34:23.355Z,3.80
2023-02-23T22:36:56.379Z,4.07
2023-02-23T22:39:23.815Z,4.00
2023-02-23T22:41:53.262Z,3.70
2023-02-23T22:44:24.588Z,4.32
2023-02-23T22:46:54.971Z,4.07
2023-02-23T22:49:23.143Z,4.72
2023-02-23T22:51:51.307Z,4.30
2023-02-23T22:54:21.447Z,4.00
2023-02-23T22:56:50.011Z,4.97
2023-02-23T22:59:23.201Z,3.92
2023-02-23T23:01:56.716Z,4.75
2023-02-23T23:04:25.983Z,4.03
2023-02-23T23:06:53.582Z,3.95
2023-02-23T23:09:22.382Z,3.92
2023-02-23T23:11:52.718Z,3.92
2023-02-23T23:14:21.445Z,4.60
2023-02-23T23:16:54.761Z,4.00
2023-02-23T23:19:24.846Z,5.30
2023-02-23T23:21:56.308Z,5.18
2023-02-23T23:24:24.609Z,4.43
2023-02-23T23:26:55.918Z,4.20
2023-02-23T23:29:28.100Z,4.20
2023-02-23T23:31:57.574Z,4.35
2023-02-23T23:34:25.960Z,4.43
2023-02-23T23:36:56.975Z,4.50
2023-02-23T23:39:26.395Z,5.85
2023-02-23T23:41:54.616Z,4.60
2023-02-23T23:44:29.694Z,4.55
2023-02-23T23:46:58.134Z,5.28
2023-02-23T23:49:26.952Z,4.13
2023-02-23T23:51:56.368Z,4.78
2023-02-23T23:54:26.962Z,4.88
2023-02-23T23:56:54.858Z,3.85
2023-02-23T23:59:24.741Z,4.40
